sensor_id;sensor_type;location;lat;lon;timestamp;P1;durP1;ratioP1;P2;durP2;ratioP2
65896;SDS011;52677;50.898;10.854;2023-07-31T00:01:14;4.18;;;1.83;;
65896;SDS011;52677;50.898;10.854;2023-07-31T00:03:14;4.60;;;1.90;;
65896;SDS011;52677;50.898;10.854;2023-07-31T00:05:15;3.72;;;1.60;;
65896;SDS011;52677;50.898;10.854;2023-07-31T00:07:15;2.53;;;1.58;;
65896;SDS011;52677;50.898;10.854;2023-07-31T00:09:16;3.95;;;1.90;;
65896;SDS011;52677;50.898;10.854;2023-07-31T00:11:16;5.47;;;1.67;;
65896;SDS011;52677;50.898;10.854;2023-07-31T00:13:16;6.80;;;1.40;;
65896;SDS011;52677;50.898;10.854;2023-07-31T00:15:17;7.18;;;2.00;;
65896;SDS011;52677;50.898;10.854;2023-07-31T00:17:17;4.03;;;1.85;;
65896;SDS011;52677;50.898;10.854;2023-07-31T00:19:18;5.43;;;1.67;;
65896;SDS011;52677;50.898;10.854;2023-07-31T00:21:18;3.63;;;1.90;;
65896;SDS011;52677;50.898;10.854;2023-07-31T00:23:18;4.90;;;1.55;;
65896;SDS011;52677;50.898;10.854;2023-07-31T00:25:19;5.38;;;1.67;;
65896;SDS011;52677;50.898;10.854;2023-07-31T00:27:19;3.28;;;1.58;;
65896;SDS011;52677;50.898;10.854;2023-07-31T00:29:20;2.90;;;1.75;;
65896;SDS011;52677;50.898;10.854;2023-07-31T00:31:20;3.88;;;1.77;;
65896;SDS011;52677;50.898;10.854;2023-07-31T00:33:20;2.72;;;1.70;;
65896;SDS011;52677;50.898;10.854;2023-07-31T00:35:21;5.25;;;1.70;;
65896;SDS011;52677;50.898;10.854;2023-07-31T00:37:21;3.03;;;1.35;;
65896;SDS011;52677;50.898;10.854;2023-07-31T00:39:21;4.90;;;1.92;;
65896;SDS011;52677;50.898;10.854;2023-07-31T00:41:21;3.35;;;1.67;;
65896;SDS011;52677;50.898;10.854;2023-07-31T00:43:22;4.57;;;1.48;;
65896;SDS011;52677;50.898;10.854;2023-07-31T00:45:22;4.13;;;1.88;;
65896;SDS011;52677;50.898;10.854;2023-07-31T00:47:24;4.38;;;1.95;;
65896;SDS011;52677;50.898;10.854;2023-07-31T00:49:24;3.47;;;1.58;;
65896;SDS011;52677;50.898;10.854;2023-07-31T00:51:24;5.55;;;1.80;;
65896;SDS011;52677;50.898;10.854;2023-07-31T00:53:25;3.05;;;1.70;;
65896;SDS011;52677;50.898;10.854;2023-07-31T00:55:25;3.33;;;1.60;;
65896;SDS011;52677;50.898;10.854;2023-07-31T00:57:26;2.65;;;1.50;;
65896;SDS011;52677;50.898;10.854;2023-07-31T00:59:26;4.35;;;1.80;;
65896;SDS011;52677;50.898;10.854;2023-07-31T01:01:27;3.20;;;1.90;;
65896;SDS011;52677;50.898;10.854;2023-07-31T01:03:27;3.15;;;1.63;;
65896;SDS011;52677;50.898;10.854;2023-07-31T01:05:33;2.65;;;1.83;;
65896;SDS011;52677;50.898;10.854;2023-07-31T01:12:08;3.45;;;2.20;;
65896;SDS011;52677;50.898;10.854;2023-07-31T01:14:12;9.40;;;1.90;;
65896;SDS011;52677;50.898;10.854;2023-07-31T01:16:12;3.70;;;1.60;;
65896;SDS011;52677;50.898;10.854;2023-07-31T01:18:12;3.28;;;1.77;;
65896;SDS011;52677;50.898;10.854;2023-07-31T01:27:10;3.58;;;1.70;;
65896;SDS011;52677;50.898;10.854;2023-07-31T01:29:23;2.92;;;1.60;;
65896;SDS011;52677;50.898;10.854;2023-07-31T01:31:25;4.72;;;1.73;;
65896;SDS011;52677;50.898;10.854;2023-07-31T01:33:28;6.68;;;2.50;;
65896;SDS011;52677;50.898;10.854;2023-07-31T01:35:29;3.78;;;1.80;;
65896;SDS011;52677;50.898;10.854;2023-07-31T01:37:30;4.82;;;2.22;;
65896;SDS011;52677;50.898;10.854;2023-07-31T01:39:30;4.72;;;1.85;;
65896;SDS011;52677;50.898;10.854;2023-07-31T01:41:31;4.60;;;1.98;;
65896;SDS011;52677;50.898;10.854;2023-07-31T01:43:31;4.72;;;2.10;;
65896;SDS011;52677;50.898;10.854;2023-07-31T01:45:31;4.03;;;2.30;;
65896;SDS011;52677;50.898;10.854;2023-07-31T01:47:32;3.65;;;1.63;;
65896;SDS011;52677;50.898;10.854;2023-07-31T01:49:32;8.23;;;2.20;;
65896;SDS011;52677;50.898;10.854;2023-07-31T01:51:32;3.45;;;1.85;;
65896;SDS011;52677;50.898;10.854;2023-07-31T01:53:35;3.63;;;1.73;;
65896;SDS011;52677;50.898;10.854;2023-07-31T01:55:36;3.65;;;1.80;;
65896;SDS011;52677;50.898;10.854;2023-07-31T01:57:36;4.22;;;2.10;;
65896;SDS011;52677;50.898;10.854;2023-07-31T01:59:37;4.40;;;1.67;;
65896;SDS011;52677;50.898;10.854;2023-07-31T02:01:37;4.93;;;1.70;;
65896;SDS011;52677;50.898;10.854;2023-07-31T02:03:38;3.55;;;1.70;;
65896;SDS011;52677;50.898;10.854;2023-07-31T02:05:44;5.03;;;2.00;;
65896;SDS011;52677;50.898;10.854;2023-07-31T02:07:45;4.97;;;2.15;;
65896;SDS011;52677;50.898;10.854;2023-07-31T02:09:46;3.58;;;2.00;;
65896;SDS011;52677;50.898;10.854;2023-07-31T02:11:47;3.45;;;2.13;;
65896;SDS011;52677;50.898;10.854;2023-07-31T02:13:48;8.32;;;2.40;;
65896;SDS011;52677;50.898;10.854;2023-07-31T02:15:48;5.45;;;2.00;;
65896;SDS011;52677;50.898;10.854;2023-07-31T02:17:48;6.50;;;2.20;;
65896;SDS011;52677;50.898;10.854;2023-07-31T02:19:49;3.53;;;2.00;;
65896;SDS011;52677;50.898;10.854;2023-07-31T02:21:49;5.25;;;2.70;;
65896;SDS011;52677;50.898;10.854;2023-07-31T02:23:49;4.60;;;2.00;;
65896;SDS011;52677;50.898;10.854;2023-07-31T02:25:49;5.78;;;2.15;;
65896;SDS011;52677;50.898;10.854;2023-07-31T02:27:50;3.88;;;2.00;;
65896;SDS011;52677;50.898;10.854;2023-07-31T02:29:50;3.95;;;1.98;;
65896;SDS011;52677;50.898;10.854;2023-07-31T02:31:50;5.88;;;2.20;;
65896;SDS011;52677;50.898;10.854;2023-07-31T02:33:51;4.93;;;2.00;;
65896;SDS011;52677;50.898;10.854;2023-07-31T02:35:51;2.95;;;1.80;;
65896;SDS011;52677;50.898;10.854;2023-07-31T02:37:51;4.50;;;2.17;;
65896;SDS011;52677;50.898;10.854;2023-07-31T02:39:52;4.05;;;2.35;;
65896;SDS011;52677;50.898;10.854;2023-07-31T02:41:52;4.53;;;2.30;;
65896;SDS011;52677;50.898;10.854;2023-07-31T02:43:52;4.05;;;2.10;;
65896;SDS011;52677;50.898;10.854;2023-07-31T02:45:52;4.13;;;2.15;;
65896;SDS011;52677;50.898;10.854;2023-07-31T02:47:53;4.70;;;2.20;;
65896;SDS011;52677;50.898;10.854;2023-07-31T02:49:53;5.15;;;2.00;;
65896;SDS011;52677;50.898;10.854;2023-07-31T02:51:53;6.88;;;2.35;;
65896;SDS011;52677;50.898;10.854;2023-07-31T02:53:54;4.57;;;2.00;;
65896;SDS011;52677;50.898;10.854;2023-07-31T02:55:54;3.53;;;1.73;;
65896;SDS011;52677;50.898;10.854;2023-07-31T02:57:54;3.20;;;2.10;;
65896;SDS011;52677;50.898;10.854;2023-07-31T02:59:55;3.47;;;2.00;;
65896;SDS011;52677;50.898;10.854;2023-07-31T03:01:55;4.57;;;2.15;;
65896;SDS011;52677;50.898;10.854;2023-07-31T03:03:55;6.07;;;2.08;;
65896;SDS011;52677;50.898;10.854;2023-07-31T03:05:56;5.68;;;2.10;;
65896;SDS011;52677;50.898;10.854;2023-07-31T03:07:56;5.57;;;2.33;;
65896;SDS011;52677;50.898;10.854;2023-07-31T03:09:56;3.42;;;1.90;;
65896;SDS011;52677;50.898;10.854;2023-07-31T03:11:57;5.90;;;2.35;;
65896;SDS011;52677;50.898;10.854;2023-07-31T03:13:57;3.92;;;2.08;;
65896;SDS011;52677;50.898;10.854;2023-07-31T03:15:57;4.75;;;2.30;;
65896;SDS011;52677;50.898;10.854;2023-07-31T03:17:58;5.70;;;2.28;;
65896;SDS011;52677;50.898;10.854;2023-07-31T03:19:58;2.70;;;2.08;;
65896;SDS011;52677;50.898;10.854;2023-07-31T03:21:59;4.53;;;1.60;;
65896;SDS011;52677;50.898;10.854;2023-07-31T03:23:59;3.95;;;2.00;;
65896;SDS011;52677;50.898;10.854;2023-07-31T03:26:00;3.67;;;1.98;;
65896;SDS011;52677;50.898;10.854;2023-07-31T03:28:05;7.32;;;3.08;;
65896;SDS011;52677;50.898;10.854;2023-07-31T03:30:06;4.05;;;1.90;;
65896;SDS011;52677;50.898;10.854;2023-07-31T03:32:06;6.95;;;2.30;;
65896;SDS011;52677;50.898;10.854;2023-07-31T03:34:07;4.30;;;2.08;;
65896;SDS011;52677;50.898;10.854;2023-07-31T03:36:07;4.40;;;2.28;;
65896;SDS011;52677;50.898;10.854;2023-07-31T03:38:08;3.95;;;1.77;;
65896;SDS011;52677;50.898;10.854;2023-07-31T03:40:08;2.78;;;2.15;;
65896;SDS011;52677;50.898;10.854;2023-07-31T03:42:09;5.57;;;2.10;;
65896;SDS011;52677;50.898;10.854;2023-07-31T03:44:09;5.80;;;2.33;;
65896;SDS011;52677;50.898;10.854;2023-07-31T03:46:10;4.35;;;2.15;;
65896;SDS011;52677;50.898;10.854;2023-07-31T03:48:11;6.63;;;2.55;;
65896;SDS011;52677;50.898;10.854;2023-07-31T03:50:11;3.90;;;2.10;;
65896;SDS011;52677;50.898;10.854;2023-07-31T03:52:11;4.07;;;2.15;;
65896;SDS011;52677;50.898;10.854;2023-07-31T03:54:12;5.70;;;2.40;;
65896;SDS011;52677;50.898;10.854;2023-07-31T03:56:13;3.63;;;2.33;;
65896;SDS011;52677;50.898;10.854;2023-07-31T03:58:13;4.20;;;2.15;;
65896;SDS011;52677;50.898;10.854;2023-07-31T04:00:14;5.63;;;2.33;;
65896;SDS011;52677;50.898;10.854;2023-07-31T04:02:14;4.93;;;2.38;;
65896;SDS011;52677;50.898;10.854;2023-07-31T04:04:14;5.85;;;2.42;;
65896;SDS011;52677;50.898;10.854;2023-07-31T04:06:15;4.07;;;2.30;;
65896;SDS011;52677;50.898;10.854;2023-07-31T04:08:18;7.80;;;2.97;;
65896;SDS011;52677;50.898;10.854;2023-07-31T04:10:18;4.68;;;2.25;;
65896;SDS011;52677;50.898;10.854;2023-07-31T04:12:18;4.78;;;2.17;;
65896;SDS011;52677;50.898;10.854;2023-07-31T04:14:18;4.85;;;2.10;;
65896;SDS011;52677;50.898;10.854;2023-07-31T04:16:19;3.60;;;2.08;;
65896;SDS011;52677;50.898;10.854;2023-07-31T04:18:19;5.03;;;2.22;;
65896;SDS011;52677;50.898;10.854;2023-07-31T04:20:20;4.20;;;2.25;;
65896;SDS011;52677;50.898;10.854;2023-07-31T04:22:20;9.18;;;2.55;;
65896;SDS011;52677;50.898;10.854;2023-07-31T04:24:20;5.97;;;2.28;;
65896;SDS011;52677;50.898;10.854;2023-07-31T04:26:24;5.05;;;2.30;;
65896;SDS011;52677;50.898;10.854;2023-07-31T04:28:24;5.55;;;2.00;;
65896;SDS011;52677;50.898;10.854;2023-07-31T04:30:26;3.30;;;2.15;;
65896;SDS011;52677;50.898;10.854;2023-07-31T04:32:26;4.47;;;2.30;;
65896;SDS011;52677;50.898;10.854;2023-07-31T04:34:27;3.80;;;2.10;;
65896;SDS011;52677;50.898;10.854;2023-07-31T04:36:27;6.78;;;2.65;;
65896;SDS011;52677;50.898;10.854;2023-07-31T04:38:27;5.45;;;2.40;;
65896;SDS011;52677;50.898;10.854;2023-07-31T04:40:27;4.60;;;2.45;;
65896;SDS011;52677;50.898;10.854;2023-07-31T04:42:28;3.63;;;2.35;;
65896;SDS011;52677;50.898;10.854;2023-07-31T04:44:28;5.10;;;2.25;;
65896;SDS011;52677;50.898;10.854;2023-07-31T04:46:29;4.70;;;2.40;;
65896;SDS011;52677;50.898;10.854;2023-07-31T04:48:29;4.68;;;2.33;;
65896;SDS011;52677;50.898;10.854;2023-07-31T04:50:30;3.33;;;2.33;;
65896;SDS011;52677;50.898;10.854;2023-07-31T04:52:30;4.15;;;2.00;;
65896;SDS011;52677;50.898;10.854;2023-07-31T04:54:30;6.72;;;2.60;;
65896;SDS011;52677;50.898;10.854;2023-07-31T04:56:31;5.07;;;2.10;;
65896;SDS011;52677;50.898;10.854;2023-07-31T04:58:31;4.07;;;2.25;;
65896;SDS011;52677;50.898;10.854;2023-07-31T05:00:31;4.50;;;2.60;;
65896;SDS011;52677;50.898;10.854;2023-07-31T05:02:32;2.83;;;1.90;;
65896;SDS011;52677;50.898;10.854;2023-07-31T05:04:32;4.82;;;2.65;;
65896;SDS011;52677;50.898;10.854;2023-07-31T05:06:32;7.30;;;2.58;;
65896;SDS011;52677;50.898;10.854;2023-07-31T05:08:32;4.28;;;2.13;;
65896;SDS011;52677;50.898;10.854;2023-07-31T05:10:33;5.97;;;2.47;;
65896;SDS011;52677;50.898;10.854;2023-07-31T05:12:33;7.55;;;2.38;;
65896;SDS011;52677;50.898;10.854;2023-07-31T05:14:34;5.95;;;2.60;;
65896;SDS011;52677;50.898;10.854;2023-07-31T05:16:34;4.72;;;2.22;;
65896;SDS011;52677;50.898;10.854;2023-07-31T05:18:34;5.40;;;2.55;;
65896;SDS011;52677;50.898;10.854;2023-07-31T05:20:35;3.75;;;2.60;;
65896;SDS011;52677;50.898;10.854;2023-07-31T05:22:35;3.85;;;2.60;;
65896;SDS011;52677;50.898;10.854;2023-07-31T05:24:35;7.20;;;2.38;;
65896;SDS011;52677;50.898;10.854;2023-07-31T05:26:36;7.15;;;2.45;;
65896;SDS011;52677;50.898;10.854;2023-07-31T05:28:37;5.43;;;2.57;;
65896;SDS011;52677;50.898;10.854;2023-07-31T05:30:38;6.82;;;3.00;;
65896;SDS011;52677;50.898;10.854;2023-07-31T05:32:38;5.68;;;2.60;;
65896;SDS011;52677;50.898;10.854;2023-07-31T05:34:38;3.80;;;2.22;;
65896;SDS011;52677;50.898;10.854;2023-07-31T05:36:39;4.82;;;2.58;;
65896;SDS011;52677;50.898;10.854;2023-07-31T05:38:39;5.93;;;2.53;;
65896;SDS011;52677;50.898;10.854;2023-07-31T05:40:39;4.47;;;2.28;;
65896;SDS011;52677;50.898;10.854;2023-07-31T05:42:40;4.78;;;2.70;;
65896;SDS011;52677;50.898;10.854;2023-07-31T05:44:40;5.55;;;2.47;;
65896;SDS011;52677;50.898;10.854;2023-07-31T05:46:40;4.60;;;2.38;;
65896;SDS011;52677;50.898;10.854;2023-07-31T05:48:41;2.80;;;2.00;;
65896;SDS011;52677;50.898;10.854;2023-07-31T05:50:42;6.53;;;3.67;;
65896;SDS011;52677;50.898;10.854;2023-07-31T05:52:43;7.75;;;2.67;;
65896;SDS011;52677;50.898;10.854;2023-07-31T05:54:43;4.38;;;2.60;;
65896;SDS011;52677;50.898;10.854;2023-07-31T05:56:45;6.22;;;2.97;;
65896;SDS011;52677;50.898;10.854;2023-07-31T05:58:46;5.70;;;2.45;;
65896;SDS011;52677;50.898;10.854;2023-07-31T06:00:46;3.72;;;2.28;;
65896;SDS011;52677;50.898;10.854;2023-07-31T06:02:47;5.07;;;2.28;;
65896;SDS011;52677;50.898;10.854;2023-07-31T06:04:48;4.70;;;2.30;;
65896;SDS011;52677;50.898;10.854;2023-07-31T06:06:48;3.58;;;2.10;;
65896;SDS011;52677;50.898;10.854;2023-07-31T06:08:48;5.25;;;2.75;;
65896;SDS011;52677;50.898;10.854;2023-07-31T06:10:49;4.43;;;2.25;;
65896;SDS011;52677;50.898;10.854;2023-07-31T06:12:50;5.63;;;2.78;;
65896;SDS011;52677;50.898;10.854;2023-07-31T06:14:50;11.35;;;2.50;;
65896;SDS011;52677;50.898;10.854;2023-07-31T06:16:51;5.18;;;2.42;;
65896;SDS011;52677;50.898;10.854;2023-07-31T06:18:51;5.70;;;2.78;;
65896;SDS011;52677;50.898;10.854;2023-07-31T06:20:51;4.05;;;2.45;;
65896;SDS011;52677;50.898;10.854;2023-07-31T06:22:53;4.18;;;2.85;;
65896;SDS011;52677;50.898;10.854;2023-07-31T06:24:53;5.60;;;2.40;;
65896;SDS011;52677;50.898;10.854;2023-07-31T06:26:54;5.07;;;2.47;;
65896;SDS011;52677;50.898;10.854;2023-07-31T06:28:54;4.60;;;2.20;;
65896;SDS011;52677;50.898;10.854;2023-07-31T06:30:54;6.15;;;2.50;;
65896;SDS011;52677;50.898;10.854;2023-07-31T06:32:55;5.03;;;2.30;;
65896;SDS011;52677;50.898;10.854;2023-07-31T06:34:55;4.10;;;2.13;;
65896;SDS011;52677;50.898;10.854;2023-07-31T06:36:56;5.60;;;2.38;;
65896;SDS011;52677;50.898;10.854;2023-07-31T06:38:56;4.60;;;2.40;;
65896;SDS011;52677;50.898;10.854;2023-07-31T06:40:56;4.13;;;1.98;;
65896;SDS011;52677;50.898;10.854;2023-07-31T06:42:57;3.55;;;2.20;;
65896;SDS011;52677;50.898;10.854;2023-07-31T06:44:57;3.80;;;2.30;;
65896;SDS011;52677;50.898;10.854;2023-07-31T06:46:58;4.70;;;2.30;;
65896;SDS011;52677;50.898;10.854;2023-07-31T06:48:58;3.88;;;2.17;;
65896;SDS011;52677;50.898;10.854;2023-07-31T06:50:58;3.30;;;1.98;;
65896;SDS011;52677;50.898;10.854;2023-07-31T06:52:59;4.88;;;2.72;;
65896;SDS011;52677;50.898;10.854;2023-07-31T06:55:00;8.32;;;2.30;;
65896;SDS011;52677;50.898;10.854;2023-07-31T06:59:03;4.03;;;2.30;;
65896;SDS011;52677;50.898;10.854;2023-07-31T07:01:03;4.95;;;2.28;;
65896;SDS011;52677;50.898;10.854;2023-07-31T07:03:04;3.55;;;2.10;;
65896;SDS011;52677;50.898;10.854;2023-07-31T07:05:04;3.15;;;2.10;;
65896;SDS011;52677;50.898;10.854;2023-07-31T07:07:05;3.58;;;2.17;;
65896;SDS011;52677;50.898;10.854;2023-07-31T07:09:05;5.30;;;2.33;;
65896;SDS011;52677;50.898;10.854;2023-07-31T07:11:05;6.45;;;2.40;;
65896;SDS011;52677;50.898;10.854;2023-07-31T07:13:06;4.03;;;2.38;;
65896;SDS011;52677;50.898;10.854;2023-07-31T07:15:07;5.45;;;2.30;;
65896;SDS011;52677;50.898;10.854;2023-07-31T07:17:08;6.40;;;2.55;;
65896;SDS011;52677;50.898;10.854;2023-07-31T07:19:09;5.18;;;2.60;;
65896;SDS011;52677;50.898;10.854;2023-07-31T07:21:09;4.60;;;2.58;;
65896;SDS011;52677;50.898;10.854;2023-07-31T07:23:09;4.20;;;2.58;;
65896;SDS011;52677;50.898;10.854;2023-07-31T07:25:10;4.40;;;2.33;;
65896;SDS011;52677;50.898;10.854;2023-07-31T07:27:10;3.70;;;2.00;;
65896;SDS011;52677;50.898;10.854;2023-07-31T07:29:10;5.53;;;2.72;;
65896;SDS011;52677;50.898;10.854;2023-07-31T07:31:11;4.00;;;2.85;;
65896;SDS011;52677;50.898;10.854;2023-07-31T07:33:11;4.53;;;2.58;;
65896;SDS011;52677;50.898;10.854;2023-07-31T07:35:12;3.20;;;2.20;;
65896;SDS011;52677;50.898;10.854;2023-07-31T07:37:12;5.13;;;2.55;;
65896;SDS011;52677;50.898;10.854;2023-07-31T07:39:13;4.50;;;2.47;;
65896;SDS011;52677;50.898;10.854;2023-07-31T07:41:13;3.90;;;2.15;;
65896;SDS011;52677;50.898;10.854;2023-07-31T07:43:13;4.80;;;2.30;;
65896;SDS011;52677;50.898;10.854;2023-07-31T07:45:14;3.88;;;1.95;;
65896;SDS011;52677;50.898;10.854;2023-07-31T07:47:14;4.22;;;2.38;;
65896;SDS011;52677;50.898;10.854;2023-07-31T07:49:15;5.03;;;2.35;;
65896;SDS011;52677;50.898;10.854;2023-07-31T07:51:15;4.47;;;2.40;;
65896;SDS011;52677;50.898;10.854;2023-07-31T07:53:15;5.05;;;2.30;;
65896;SDS011;52677;50.898;10.854;2023-07-31T07:55:15;3.33;;;2.28;;
65896;SDS011;52677;50.898;10.854;2023-07-31T07:57:16;5.70;;;2.30;;
65896;SDS011;52677;50.898;10.854;2023-07-31T07:59:16;6.00;;;2.28;;
65896;SDS011;52677;50.898;10.854;2023-07-31T08:01:17;5.57;;;2.30;;
65896;SDS011;52677;50.898;10.854;2023-07-31T08:03:17;3.65;;;2.22;;
65896;SDS011;52677;50.898;10.854;2023-07-31T08:05:18;3.63;;;2.50;;
65896;SDS011;52677;50.898;10.854;2023-07-31T08:07:18;6.07;;;2.28;;
65896;SDS011;52677;50.898;10.854;2023-07-31T08:09:18;3.78;;;2.30;;
65896;SDS011;52677;50.898;10.854;2023-07-31T08:11:18;5.88;;;2.40;;
65896;SDS011;52677;50.898;10.854;2023-07-31T08:13:19;2.88;;;2.10;;
65896;SDS011;52677;50.898;10.854;2023-07-31T08:15:19;4.55;;;2.40;;
65896;SDS011;52677;50.898;10.854;2023-07-31T08:17:19;3.00;;;2.10;;
65896;SDS011;52677;50.898;10.854;2023-07-31T08:19:20;4.80;;;2.17;;
65896;SDS011;52677;50.898;10.854;2023-07-31T08:21:20;4.45;;;2.35;;
65896;SDS011;52677;50.898;10.854;2023-07-31T08:23:21;3.67;;;2.13;;
65896;SDS011;52677;50.898;10.854;2023-07-31T08:25:22;3.90;;;2.35;;
65896;SDS011;52677;50.898;10.854;2023-07-31T08:27:22;4.80;;;2.13;;
65896;SDS011;52677;50.898;10.854;2023-07-31T08:29:22;3.95;;;2.67;;
65896;SDS011;52677;50.898;10.854;2023-07-31T08:31:23;4.63;;;2.40;;
65896;SDS011;52677;50.898;10.854;2023-07-31T08:33:24;3.83;;;2.17;;
65896;SDS011;52677;50.898;10.854;2023-07-31T08:35:24;4.55;;;2.55;;
65896;SDS011;52677;50.898;10.854;2023-07-31T08:37:26;6.55;;;2.50;;
65896;SDS011;52677;50.898;10.854;2023-07-31T08:39:26;4.90;;;2.53;;
65896;SDS011;52677;50.898;10.854;2023-07-31T08:41:27;4.32;;;2.50;;
65896;SDS011;52677;50.898;10.854;2023-07-31T08:43:27;3.78;;;2.40;;
65896;SDS011;52677;50.898;10.854;2023-07-31T08:45:28;3.70;;;2.40;;
65896;SDS011;52677;50.898;10.854;2023-07-31T08:47:29;3.33;;;2.10;;
65896;SDS011;52677;50.898;10.854;2023-07-31T08:49:30;2.85;;;2.28;;
65896;SDS011;52677;50.898;10.854;2023-07-31T08:51:33;3.22;;;2.28;;
65896;SDS011;52677;50.898;10.854;2023-07-31T08:53:34;3.85;;;2.33;;
65896;SDS011;52677;50.898;10.854;2023-07-31T08:55:35;4.38;;;2.55;;
65896;SDS011;52677;50.898;10.854;2023-07-31T08:57:36;4.90;;;2.60;;
65896;SDS011;52677;50.898;10.854;2023-07-31T08:59:37;3.33;;;2.15;;
65896;SDS011;52677;50.898;10.854;2023-07-31T09:01:40;5.25;;;2.55;;
65896;SDS011;52677;50.898;10.854;2023-07-31T09:03:47;5.10;;;2.50;;
65896;SDS011;52677;50.898;10.854;2023-07-31T09:05:50;4.63;;;2.53;;
65896;SDS011;52677;50.898;10.854;2023-07-31T09:07:51;6.03;;;2.53;;
65896;SDS011;52677;50.898;10.854;2023-07-31T09:09:52;7.20;;;2.50;;
65896;SDS011;52677;50.898;10.854;2023-07-31T09:11:52;4.38;;;2.55;;
65896;SDS011;52677;50.898;10.854;2023-07-31T09:13:53;4.68;;;2.65;;
65896;SDS011;52677;50.898;10.854;2023-07-31T09:15:57;4.57;;;2.35;;
65896;SDS011;52677;50.898;10.854;2023-07-31T09:18:01;5.40;;;2.60;;
65896;SDS011;52677;50.898;10.854;2023-07-31T09:20:15;5.45;;;2.90;;
65896;SDS011;52677;50.898;10.854;2023-07-31T09:22:18;3.70;;;2.50;;
65896;SDS011;52677;50.898;10.854;2023-07-31T09:24:32;4.90;;;2.25;;
65896;SDS011;52677;50.898;10.854;2023-07-31T09:26:35;3.55;;;2.70;;
65896;SDS011;52677;50.898;10.854;2023-07-31T09:28:36;5.65;;;2.63;;
65896;SDS011;52677;50.898;10.854;2023-07-31T09:32:49;5.13;;;2.78;;
65896;SDS011;52677;50.898;10.854;2023-07-31T09:34:50;5.57;;;2.38;;
65896;SDS011;52677;50.898;10.854;2023-07-31T09:36:50;3.92;;;2.55;;
65896;SDS011;52677;50.898;10.854;2023-07-31T09:38:52;5.43;;;2.78;;
65896;SDS011;52677;50.898;10.854;2023-07-31T09:40:52;7.72;;;2.50;;
65896;SDS011;52677;50.898;10.854;2023-07-31T09:42:54;5.95;;;2.67;;
65896;SDS011;52677;50.898;10.854;2023-07-31T09:45:06;4.20;;;2.55;;
65896;SDS011;52677;50.898;10.854;2023-07-31T09:47:24;5.88;;;2.55;;
65896;SDS011;52677;50.898;10.854;2023-07-31T09:49:24;3.67;;;2.38;;
65896;SDS011;52677;50.898;10.854;2023-07-31T09:51:28;6.38;;;2.42;;
65896;SDS011;52677;50.898;10.854;2023-07-31T09:53:28;5.28;;;2.78;;
65896;SDS011;52677;50.898;10.854;2023-07-31T09:55:30;5.55;;;2.58;;
65896;SDS011;52677;50.898;10.854;2023-07-31T09:57:34;5.25;;;2.90;;
65896;SDS011;52677;50.898;10.854;2023-07-31T09:59:39;4.70;;;2.60;;
65896;SDS011;52677;50.898;10.854;2023-07-31T10:01:40;5.82;;;2.55;;
65896;SDS011;52677;50.898;10.854;2023-07-31T10:03:42;3.40;;;2.50;;
65896;SDS011;52677;50.898;10.854;2023-07-31T10:05:46;5.22;;;2.60;;
65896;SDS011;52677;50.898;10.854;2023-07-31T10:07:54;4.03;;;2.35;;
65896;SDS011;52677;50.898;10.854;2023-07-31T10:09:55;6.85;;;3.35;;
65896;SDS011;52677;50.898;10.854;2023-07-31T10:11:59;6.35;;;2.63;;
65896;SDS011;52677;50.898;10.854;2023-07-31T10:14:04;6.15;;;2.78;;
65896;SDS011;52677;50.898;10.854;2023-07-31T10:16:05;7.20;;;2.67;;
65896;SDS011;52677;50.898;10.854;2023-07-31T10:18:06;5.40;;;2.88;;
65896;SDS011;52677;50.898;10.854;2023-07-31T10:20:06;5.43;;;2.78;;
65896;SDS011;52677;50.898;10.854;2023-07-31T10:22:08;3.80;;;2.58;;
65896;SDS011;52677;50.898;10.854;2023-07-31T10:24:08;7.82;;;3.13;;
65896;SDS011;52677;50.898;10.854;2023-07-31T10:26:09;4.68;;;2.58;;
65896;SDS011;52677;50.898;10.854;2023-07-31T10:28:11;7.40;;;2.83;;
65896;SDS011;52677;50.898;10.854;2023-07-31T10:30:12;4.97;;;2.85;;
65896;SDS011;52677;50.898;10.854;2023-07-31T10:32:17;5.38;;;2.60;;
65896;SDS011;52677;50.898;10.854;2023-07-31T10:34:18;5.93;;;2.58;;
65896;SDS011;52677;50.898;10.854;2023-07-31T10:36:19;5.00;;;3.00;;
65896;SDS011;52677;50.898;10.854;2023-07-31T10:38:20;7.13;;;2.75;;
65896;SDS011;52677;50.898;10.854;2023-07-31T10:40:26;5.45;;;2.90;;
65896;SDS011;52677;50.898;10.854;2023-07-31T10:42:28;5.20;;;2.45;;
65896;SDS011;52677;50.898;10.854;2023-07-31T10:44:37;5.80;;;3.25;;
65896;SDS011;52677;50.898;10.854;2023-07-31T10:46:37;3.72;;;2.33;;
65896;SDS011;52677;50.898;10.854;2023-07-31T10:48:38;6.05;;;2.85;;
65896;SDS011;52677;50.898;10.854;2023-07-31T10:50:48;6.10;;;2.95;;
65896;SDS011;52677;50.898;10.854;2023-07-31T10:52:54;6.22;;;3.55;;
65896;SDS011;52677;50.898;10.854;2023-07-31T10:55:39;5.30;;;2.40;;
65896;SDS011;52677;50.898;10.854;2023-07-31T10:57:26;6.30;;;2.90;;
65896;SDS011;52677;50.898;10.854;2023-07-31T10:59:35;7.20;;;2.90;;
65896;SDS011;52677;50.898;10.854;2023-07-31T11:01:49;3.45;;;2.38;;
65896;SDS011;52677;50.898;10.854;2023-07-31T11:03:55;6.10;;;2.75;;
65896;SDS011;52677;50.898;10.854;2023-07-31T11:06:00;6.28;;;2.95;;
65896;SDS011;52677;50.898;10.854;2023-07-31T11:08:09;6.28;;;3.15;;
65896;SDS011;52677;50.898;10.854;2023-07-31T11:10:17;4.85;;;2.80;;
65896;SDS011;52677;50.898;10.854;2023-07-31T11:12:18;5.15;;;3.13;;
65896;SDS011;52677;50.898;10.854;2023-07-31T11:14:19;4.65;;;2.83;;
65896;SDS011;52677;50.898;10.854;2023-07-31T11:16:23;4.50;;;2.65;;
65896;SDS011;52677;50.898;10.854;2023-07-31T11:18:28;6.63;;;3.38;;
65896;SDS011;52677;50.898;10.854;2023-07-31T11:20:32;6.57;;;3.33;;
65896;SDS011;52677;50.898;10.854;2023-07-31T11:22:32;5.55;;;2.85;;
65896;SDS011;52677;50.898;10.854;2023-07-31T11:26:35;5.70;;;3.05;;
65896;SDS011;52677;50.898;10.854;2023-07-31T11:28:35;3.58;;;2.58;;
65896;SDS011;52677;50.898;10.854;2023-07-31T11:30:36;5.85;;;2.83;;
65896;SDS011;52677;50.898;10.854;2023-07-31T11:32:37;5.28;;;2.72;;
65896;SDS011;52677;50.898;10.854;2023-07-31T11:34:59;3.45;;;2.55;;
65896;SDS011;52677;50.898;10.854;2023-07-31T11:36:58;4.15;;;2.83;;
65896;SDS011;52677;50.898;10.854;2023-07-31T11:39:05;6.45;;;3.28;;
65896;SDS011;52677;50.898;10.854;2023-07-31T11:41:09;4.82;;;2.83;;
65896;SDS011;52677;50.898;10.854;2023-07-31T11:43:10;7.28;;;3.30;;
65896;SDS011;52677;50.898;10.854;2023-07-31T11:45:16;4.70;;;2.67;;
65896;SDS011;52677;50.898;10.854;2023-07-31T11:47:17;5.22;;;2.70;;
65896;SDS011;52677;50.898;10.854;2023-07-31T11:49:17;7.57;;;3.50;;
65896;SDS011;52677;50.898;10.854;2023-07-31T11:51:17;7.00;;;2.95;;
65896;SDS011;52677;50.898;10.854;2023-07-31T11:53:23;4.50;;;2.83;;
65896;SDS011;52677;50.898;10.854;2023-07-31T11:55:26;6.75;;;2.97;;
65896;SDS011;52677;50.898;10.854;2023-07-31T11:57:28;5.57;;;2.78;;
65896;SDS011;52677;50.898;10.854;2023-07-31T11:59:29;3.85;;;2.75;;
65896;SDS011;52677;50.898;10.854;2023-07-31T12:01:29;4.75;;;2.50;;
65896;SDS011;52677;50.898;10.854;2023-07-31T12:03:31;5.38;;;2.45;;
65896;SDS011;52677;50.898;10.854;2023-07-31T12:05:32;4.63;;;2.80;;
65896;SDS011;52677;50.898;10.854;2023-07-31T12:07:45;6.28;;;2.67;;
65896;SDS011;52677;50.898;10.854;2023-07-31T12:09:55;3.95;;;2.08;;
65896;SDS011;52677;50.898;10.854;2023-07-31T12:11:56;5.63;;;2.85;;
65896;SDS011;52677;50.898;10.854;2023-07-31T12:13:56;4.60;;;2.72;;
65896;SDS011;52677;50.898;10.854;2023-07-31T12:15:59;4.57;;;2.40;;
65896;SDS011;52677;50.898;10.854;2023-07-31T12:18:05;2.60;;;1.80;;